KJAC/JAC METAR and TAF weather

Enter ICAO airport designator
Station Type Date Time Source
KJAC METAR 2020/10/29 17:42 UTC NOAA

KJAC 291742Z 14003KT 5SM BR OVC004 00/M03 A3034 RMK AO2


Station Type Date Time Source
KJAC Decoded METAR 2020/10/29 17:42 UTC NOAA

Jackson, Jackson Hole Airport, WY, United States (KJAC) 43-36N 110-44W
Oct 29, 2020 - 01:42 PM EDT / 2020.10.29 1742 UTC
Wind: from the SE (140 degrees) at 3 MPH (3 KT):0
Visibility: 5 mile(s):0
Sky conditions: overcast
Weather: mist
Temperature: 32 F (0 C)
Dew Point: 26 F (-3 C)
Relative Humidity: 80%
Pressure (altimeter): 30.34 in. Hg (1027 hPa)
ob: KJAC 291742Z 14003KT 5SM BR OVC004 00/M03 A3034 RMK AO2
cycle: 17

Station Type Date Time Source
KJAC TAF 2020/10/29 18:39 UTC NOAA

TAF KJAC 291736Z 2918/3018 VRB04KT P6SM SKC
TEMPO 2918/2919 5SM BR OVC002
FM300300 VRB06KT P6SM SKC
FM300500 01006KT P6SM SKC

Example: see airport list